createdAt,value
2023-05-19T00:00:31.319Z,86.70
2023-05-19T00:05:10.665Z,86.90
2023-05-19T00:09:28.597Z,86.98
2023-05-19T00:13:49.962Z,87.13
2023-05-19T00:18:09.273Z,87.08
2023-05-19T00:22:26.939Z,87.24
2023-05-19T00:26:44.582Z,87.25
2023-05-19T00:31:02.964Z,87.13
2023-05-19T00:35:20.921Z,87.13
2023-05-19T00:39:38.613Z,87.11
2023-05-19T00:43:56.395Z,87.16
2023-05-19T00:48:14.100Z,87.07
2023-05-19T00:52:32.017Z,87.14
2023-05-19T00:56:50.190Z,87.35
2023-05-19T01:01:08.649Z,87.35
2023-05-19T01:05:26.860Z,87.44
2023-05-19T01:09:44.702Z,87.51
2023-05-19T01:14:03.064Z,87.55
2023-05-19T01:18:33.548Z,87.64
2023-05-19T01:23:41.288Z,87.60
2023-05-19T01:28:29.591Z,87.49
2023-05-19T01:32:48.966Z,87.51
2023-05-19T01:37:08.256Z,87.44
2023-05-19T01:41:28.820Z,87.48
2023-05-19T01:45:47.340Z,87.31
2023-05-19T01:50:05.400Z,87.48
2023-05-19T01:54:23.104Z,87.54
2023-05-19T01:58:53.545Z,87.60
2023-05-19T02:03:38.962Z,87.66
2023-05-19T02:08:20.871Z,87.62
2023-05-19T02:12:40.736Z,87.78
2023-05-19T02:16:59.632Z,87.88
2023-05-19T02:21:17.467Z,87.70
2023-05-19T02:25:35.313Z,87.70
2023-05-19T02:29:53.506Z,87.73
2023-05-19T02:34:11.387Z,87.55
2023-05-19T02:38:28.941Z,87.45
2023-05-19T02:42:46.451Z,87.54
2023-05-19T02:47:05.175Z,87.50
2023-05-19T02:51:22.701Z,87.46
2023-05-19T02:55:40.363Z,87.25
2023-05-19T02:59:57.961Z,87.35
2023-05-19T03:04:16.024Z,87.54
2023-05-19T03:08:33.529Z,87.52
2023-05-19T03:12:51.760Z,87.53
2023-05-19T03:17:10.863Z,87.25
2023-05-19T03:21:29.076Z,86.93
2023-05-19T03:25:46.636Z,86.79
2023-05-19T03:30:07.583Z,86.48
2023-05-19T03:34:25.189Z,86.35
2023-05-19T03:38:43.589Z,85.91
2023-05-19T03:43:03.067Z,85.84
2023-05-19T03:47:21.179Z,85.41
2023-05-19T03:51:38.773Z,85.38
2023-05-19T03:55:57.424Z,85.26
2023-05-19T04:00:16.326Z,84.68
2023-05-19T04:04:34.089Z,84.77
2023-05-19T04:08:52.077Z,84.71
2023-05-19T04:13:10.271Z,84.90
2023-05-19T04:17:28.083Z,84.25
2023-05-19T04:21:47.118Z,84.11
2023-05-19T04:26:06.920Z,83.57
2023-05-19T04:30:26.146Z,83.60
2023-05-19T04:34:46.147Z,83.70
2023-05-19T04:39:07.689Z,83.23
2023-05-19T04:43:25.677Z,83.00
2023-05-19T04:47:43.253Z,82.21
2023-05-19T04:52:02.346Z,82.24
2023-05-19T04:56:19.844Z,81.77
2023-05-19T05:00:38.484Z,81.59
2023-05-19T05:04:56.989Z,81.59
2023-05-19T05:09:15.906Z,81.56
2023-05-19T05:13:34.482Z,80.96
2023-05-19T05:17:52.425Z,81.73
2023-05-19T05:22:12.376Z,81.12
2023-05-19T05:26:33.413Z,80.86
2023-05-19T05:30:52.299Z,79.92
2023-05-19T05:35:10.375Z,79.90
2023-05-19T05:39:29.255Z,80.01
2023-05-19T05:43:46.762Z,78.97
2023-05-19T05:48:05.514Z,79.28
2023-05-19T05:52:31.030Z,78.29
2023-05-19T05:56:49.464Z,79.25
2023-05-19T06:01:12.068Z,77.37
2023-05-19T06:05:29.694Z,77.45
2023-05-19T06:09:47.786Z,76.90
2023-05-19T06:14:05.498Z,77.31
2023-05-19T06:18:23.129Z,75.69
2023-05-19T06:22:42.363Z,74.18
2023-05-19T06:27:00.680Z,74.47
2023-05-19T06:31:18.704Z,75.11
2023-05-19T06:35:36.286Z,73.70
2023-05-19T06:39:55.293Z,73.87
2023-05-19T06:44:12.825Z,72.00
2023-05-19T06:48:31.420Z,71.32
2023-05-19T06:52:49.772Z,70.08
2023-05-19T06:57:07.401Z,69.02
2023-05-19T07:01:27.148Z,70.77
2023-05-19T07:05:44.684Z,70.77
2023-05-19T07:10:03.175Z,71.51
2023-05-19T07:14:22.084Z,71.99
2023-05-19T07:18:39.694Z,72.00
2023-05-19T07:22:58.040Z,72.75
2023-05-19T07:27:16.432Z,73.36
2023-05-19T07:31:34.473Z,73.21
2023-05-19T07:35:52.825Z,71.18
2023-05-19T07:40:11.014Z,71.01
2023-05-19T07:44:28.522Z,70.63
2023-05-19T07:48:46.730Z,70.97
2023-05-19T07:53:04.988Z,71.29
2023-05-19T07:57:23.750Z,70.80
2023-05-19T08:01:41.871Z,70.60
2023-05-19T08:05:59.689Z,71.82
2023-05-19T08:10:19.045Z,72.03
2023-05-19T08:14:37.639Z,69.54
2023-05-19T08:18:56.329Z,70.05
2023-05-19T08:23:14.511Z,68.87
2023-05-19T08:27:34.817Z,68.06
2023-05-19T08:31:53.394Z,67.32
2023-05-19T08:36:12.133Z,66.05
2023-05-19T08:40:32.121Z,65.46
2023-05-19T08:44:49.997Z,65.19
2023-05-19T08:49:13.683Z,67.09
2023-05-19T08:53:40.041Z,66.45
2023-05-19T08:57:57.658Z,65.51
2023-05-19T09:02:16.460Z,66.74
2023-05-19T09:06:36.106Z,67.81
2023-05-19T09:10:53.672Z,68.26
2023-05-19T09:15:16.300Z,68.95
2023-05-19T09:19:33.982Z,69.04
2023-05-19T09:23:51.831Z,69.21
2023-05-19T09:28:09.829Z,67.70
2023-05-19T09:32:28.924Z,68.35
2023-05-19T09:36:51.993Z,67.70
2023-05-19T09:41:10.864Z,66.14
2023-05-19T09:45:28.761Z,68.12
2023-05-19T09:49:49.524Z,67.55
2023-05-19T09:54:10.354Z,68.28
2023-05-19T09:58:35.664Z,68.20
2023-05-19T10:02:55.104Z,67.49
2023-05-19T10:07:14.858Z,66.63
2023-05-19T10:11:32.660Z,64.73
2023-05-19T10:15:58.159Z,64.31
2023-05-19T10:20:18.028Z,62.22
2023-05-19T10:24:35.756Z,64.48
2023-05-19T10:28:53.677Z,62.39
2023-05-19T10:33:22.803Z,65.52
2023-05-19T10:38:25.446Z,66.13
2023-05-19T10:42:59.464Z,66.57
2023-05-19T10:47:25.867Z,67.54
2023-05-19T10:51:46.532Z,68.01
2023-05-19T10:56:04.484Z,67.55
2023-05-19T11:00:32.732Z,66.53
2023-05-19T11:04:52.164Z,65.11
2023-05-19T11:09:13.860Z,63.55
2023-05-19T11:13:32.288Z,63.53
2023-05-19T11:17:51.962Z,62.61
2023-05-19T11:22:14.437Z,61.80
2023-05-19T11:26:43.438Z,64.10
2023-05-19T11:31:02.946Z,62.98
2023-05-19T11:35:21.622Z,61.79
2023-05-19T11:39:41.249Z,61.15
2023-05-19T11:43:58.872Z,63.11
2023-05-19T11:48:17.632Z,63.93
2023-05-19T11:52:35.752Z,63.63
2023-05-19T11:56:53.554Z,63.58
2023-05-19T12:01:11.486Z,63.46
2023-05-19T12:05:30.301Z,64.35
2023-05-19T12:09:48.630Z,63.91
2023-05-19T12:14:07.323Z,65.97
2023-05-19T12:18:31.774Z,66.17
2023-05-19T12:22:49.922Z,65.40
2023-05-19T12:27:20.998Z,66.48
2023-05-19T12:31:39.842Z,65.17
2023-05-19T12:35:57.925Z,65.84
2023-05-19T12:40:16.955Z,64.58
2023-05-19T12:44:50.848Z,64.83
2023-05-19T12:49:09.534Z,64.55
2023-05-19T12:53:29.812Z,63.34
2023-05-19T12:57:55.010Z,64.90
2023-05-19T13:02:14.532Z,66.04
2023-05-19T13:06:33.303Z,67.14
2023-05-19T13:10:51.273Z,67.55
2023-05-19T13:15:09.740Z,68.11
2023-05-19T13:19:29.510Z,65.85
2023-05-19T13:23:47.816Z,64.15
2023-05-19T13:28:07.453Z,65.10
2023-05-19T13:32:25.057Z,66.43
2023-05-19T13:36:49.125Z,65.26
2023-05-19T13:41:10.675Z,63.12
2023-05-19T13:45:28.919Z,65.62
2023-05-19T13:49:47.181Z,66.01
2023-05-19T13:54:06.302Z,66.96
2023-05-19T13:58:24.650Z,67.38
2023-05-19T14:02:43.070Z,68.04
2023-05-19T14:07:00.927Z,69.49
2023-05-19T14:11:23.282Z,69.12
2023-05-19T14:15:40.940Z,68.39
2023-05-19T14:20:00.837Z,68.10
2023-05-19T14:24:18.531Z,70.89
2023-05-19T14:28:36.650Z,71.67
2023-05-19T14:32:54.123Z,72.49
2023-05-19T14:37:12.849Z,73.04
2023-05-19T14:41:30.402Z,72.89
2023-05-19T14:45:49.595Z,73.51
2023-05-19T14:50:08.214Z,73.84
2023-05-19T14:54:25.948Z,74.16
2023-05-19T14:58:44.679Z,73.92
2023-05-19T15:03:02.730Z,74.14
2023-05-19T15:07:21.841Z,74.59
2023-05-19T15:11:40.091Z,75.22
2023-05-19T15:16:12.327Z,74.41
2023-05-19T15:20:38.557Z,73.19
2023-05-19T15:24:56.844Z,72.77
2023-05-19T15:29:14.485Z,73.74
2023-05-19T15:33:32.643Z,73.87
2023-05-19T15:37:51.047Z,74.61
2023-05-19T15:42:08.624Z,74.78
2023-05-19T15:46:26.671Z,75.14
2023-05-19T15:50:44.359Z,76.01
2023-05-19T15:55:02.023Z,76.76
2023-05-19T15:59:23.665Z,77.18
2023-05-19T16:03:41.289Z,76.89
2023-05-19T16:07:59.771Z,76.96
2023-05-19T16:12:17.315Z,77.66
2023-05-19T16:16:35.795Z,78.08
2023-05-19T16:20:55.852Z,78.75
2023-05-19T16:25:14.743Z,79.47
2023-05-19T16:29:32.777Z,79.91
2023-05-19T16:33:50.755Z,79.33
2023-05-19T16:38:08.331Z,78.85
2023-05-19T16:42:26.772Z,79.61
2023-05-19T16:46:44.464Z,80.03
2023-05-19T16:51:03.252Z,80.48
2023-05-19T16:55:21.192Z,80.98
2023-05-19T16:59:43.435Z,81.09
2023-05-19T17:04:01.039Z,81.22
2023-05-19T17:08:19.773Z,81.50
2023-05-19T17:12:37.796Z,81.40
2023-05-19T17:16:56.322Z,81.60
2023-05-19T17:21:14.271Z,81.92
2023-05-19T17:25:35.519Z,82.11
2023-05-19T17:29:53.168Z,82.19
2023-05-19T17:34:10.895Z,82.58
2023-05-19T17:38:29.987Z,82.94
2023-05-19T17:42:48.088Z,83.19
2023-05-19T17:47:08.347Z,83.22
2023-05-19T17:51:27.149Z,83.19
2023-05-19T17:55:51.931Z,83.50
2023-05-19T18:00:12.407Z,83.78
2023-05-19T18:04:31.362Z,84.08
2023-05-19T18:08:52.188Z,84.00
2023-05-19T18:13:14.188Z,84.08
2023-05-19T18:17:31.936Z,84.15
2023-05-19T18:21:52.417Z,84.08
2023-05-19T18:26:14.704Z,84.19
2023-05-19T18:30:32.495Z,84.35
2023-05-19T18:34:50.848Z,84.43
2023-05-19T18:39:08.295Z,84.64
2023-05-19T18:43:26.843Z,84.76
2023-05-19T18:47:44.491Z,84.83
2023-05-19T18:52:02.343Z,84.97
2023-05-19T18:56:26.332Z,85.25
2023-05-19T19:00:44.183Z,85.53
2023-05-19T19:05:04.214Z,85.74
2023-05-19T19:09:22.013Z,85.56
2023-05-19T19:13:40.275Z,85.37
2023-05-19T19:17:57.875Z,85.16
2023-05-19T19:22:17.108Z,85.22
2023-05-19T19:26:34.858Z,85.51
2023-05-19T19:30:58.948Z,85.59
2023-05-19T19:35:16.847Z,85.58
2023-05-19T19:39:36.563Z,85.63
2023-05-19T19:43:54.109Z,85.73
2023-05-19T19:48:12.721Z,85.95
2023-05-19T19:52:30.669Z,86.15
2023-05-19T19:56:48.879Z,86.20
2023-05-19T20:01:09.303Z,86.21
2023-05-19T20:05:28.271Z,86.10
2023-05-19T20:09:47.856Z,86.14
2023-05-19T20:14:05.992Z,86.06
2023-05-19T20:18:27.876Z,86.10
2023-05-19T20:22:46.621Z,86.21
2023-05-19T20:27:04.683Z,86.27
2023-05-19T20:31:24.125Z,86.22
2023-05-19T20:35:41.828Z,86.25
2023-05-19T20:39:59.999Z,86.31
2023-05-19T20:44:17.581Z,86.33
2023-05-19T20:48:35.792Z,86.51
2023-05-19T20:52:53.327Z,86.55
2023-05-19T20:57:15.084Z,86.65
2023-05-19T21:01:32.726Z,86.64
2023-05-19T21:05:51.354Z,86.57
2023-05-19T21:10:10.155Z,86.71
2023-05-19T21:14:27.761Z,86.73
2023-05-19T21:18:45.930Z,86.77
2023-05-19T21:23:04.893Z,86.79
2023-05-19T21:27:24.867Z,86.79
2023-05-19T21:31:42.565Z,86.93
2023-05-19T21:36:00.647Z,86.86
2023-05-19T21:40:19.098Z,86.91
2023-05-19T21:44:37.396Z,86.76
2023-05-19T21:48:55.110Z,86.90
2023-05-19T21:53:13.186Z,86.91
2023-05-19T21:57:32.234Z,86.96
2023-05-19T22:01:50.842Z,86.91
2023-05-19T22:06:08.493Z,86.88
2023-05-19T22:10:27.599Z,86.92
2023-05-19T22:14:45.945Z,86.84
2023-05-19T22:19:04.827Z,86.62
2023-05-19T22:23:22.970Z,86.56
2023-05-19T22:27:40.538Z,86.69
2023-05-19T22:31:58.764Z,86.70
2023-05-19T22:36:16.664Z,86.64
2023-05-19T22:40:35.642Z,86.51
2023-05-19T22:44:53.514Z,86.52
2023-05-19T22:49:11.826Z,86.69
2023-05-19T22:53:29.370Z,86.54
2023-05-19T22:57:47.283Z,86.57
2023-05-19T23:02:06.201Z,86.62
2023-05-19T23:06:24.128Z,86.75
2023-05-19T23:10:41.622Z,86.82
2023-05-19T23:15:00.423Z,86.87
2023-05-19T23:19:18.676Z,87.00
2023-05-19T23:23:37.071Z,86.98
2023-05-19T23:27:55.846Z,86.96
2023-05-19T23:32:13.394Z,87.07
2023-05-19T23:36:31.913Z,86.78
2023-05-19T23:40:49.482Z,86.91
2023-05-19T23:45:08.677Z,86.97
2023-05-19T23:49:26.372Z,87.01
2023-05-19T23:53:44.134Z,87.04
2023-05-19T23:58:02.327Z,87.13
